sensor_id;sensor_type;location;lat;lon;timestamp;temperature;humidity
26599;DHT22;14240;51.064;16.612;2023-07-02T00:02:21;19.70;99.90
26599;DHT22;14240;51.064;16.612;2023-07-02T00:04:47;19.70;99.90
26599;DHT22;14240;51.064;16.612;2023-07-02T00:07:12;19.60;99.90
26599;DHT22;14240;51.064;16.612;2023-07-02T00:09:38;19.60;99.90
26599;DHT22;14240;51.064;16.612;2023-07-02T00:12:04;19.60;99.90
26599;DHT22;14240;51.064;16.612;2023-07-02T00:14:30;19.60;99.90
26599;DHT22;14240;51.064;16.612;2023-07-02T00:16:55;19.60;99.90
26599;DHT22;14240;51.064;16.612;2023-07-02T00:19:21;19.60;99.90
26599;DHT22;14240;51.064;16.612;2023-07-02T00:21:47;19.80;99.90
26599;DHT22;14240;51.064;16.612;2023-07-02T00:24:13;19.50;99.90
26599;DHT22;14240;51.064;16.612;2023-07-02T00:26:41;19.50;99.90
26599;DHT22;14240;51.064;16.612;2023-07-02T00:29:08;19.50;99.90
26599;DHT22;14240;51.064;16.612;2023-07-02T00:31:35;19.50;99.90
26599;DHT22;14240;51.064;16.612;2023-07-02T00:34:01;19.40;99.90
26599;DHT22;14240;51.064;16.612;2023-07-02T00:36:30;19.40;99.90
26599;DHT22;14240;51.064;16.612;2023-07-02T00:38:57;19.50;99.90
26599;DHT22;14240;51.064;16.612;2023-07-02T00:41:24;19.40;99.90
26599;DHT22;14240;51.064;16.612;2023-07-02T00:43:50;19.40;99.90
26599;DHT22;14240;51.064;16.612;2023-07-02T00:46:21;19.40;99.90
26599;DHT22;14240;51.064;16.612;2023-07-02T00:48:48;19.40;99.90
26599;DHT22;14240;51.064;16.612;2023-07-02T00:51:16;19.40;99.90
26599;DHT22;14240;51.064;16.612;2023-07-02T00:53:44;19.40;99.90
26599;DHT22;14240;51.064;16.612;2023-07-02T00:56:11;19.40;99.90
26599;DHT22;14240;51.064;16.612;2023-07-02T00:58:39;19.40;99.90
26599;DHT22;14240;51.064;16.612;2023-07-02T01:01:05;19.40;99.90
26599;DHT22;14240;51.064;16.612;2023-07-02T01:03:32;19.40;99.90
26599;DHT22;14240;51.064;16.612;2023-07-02T01:05:59;19.40;99.90
26599;DHT22;14240;51.064;16.612;2023-07-02T01:08:24;19.40;99.90
26599;DHT22;14240;51.064;16.612;2023-07-02T01:10:50;19.30;99.90
26599;DHT22;14240;51.064;16.612;2023-07-02T01:13:19;19.30;99.90
26599;DHT22;14240;51.064;16.612;2023-07-02T01:15:46;19.30;99.90
26599;DHT22;14240;51.064;16.612;2023-07-02T01:18:13;19.30;99.90
26599;DHT22;14240;51.064;16.612;2023-07-02T01:20:40;19.30;99.90
26599;DHT22;14240;51.064;16.612;2023-07-02T01:23:07;19.30;99.90
26599;DHT22;14240;51.064;16.612;2023-07-02T01:25:33;19.30;99.90
26599;DHT22;14240;51.064;16.612;2023-07-02T01:28:03;19.30;99.90
26599;DHT22;14240;51.064;16.612;2023-07-02T01:30:28;19.20;99.90
26599;DHT22;14240;51.064;16.612;2023-07-02T01:32:54;19.20;99.90
26599;DHT22;14240;51.064;16.612;2023-07-02T01:35:22;19.20;99.90
26599;DHT22;14240;51.064;16.612;2023-07-02T01:37:48;19.10;99.90
26599;DHT22;14240;51.064;16.612;2023-07-02T01:40:13;19.10;99.90
26599;DHT22;14240;51.064;16.612;2023-07-02T01:42:39;19.10;99.90
26599;DHT22;14240;51.064;16.612;2023-07-02T01:45:05;19.10;99.90
26599;DHT22;14240;51.064;16.612;2023-07-02T01:47:31;19.10;99.90
26599;DHT22;14240;51.064;16.612;2023-07-02T01:49:57;19.00;99.90
26599;DHT22;14240;51.064;16.612;2023-07-02T01:52:23;19.00;99.90
26599;DHT22;14240;51.064;16.612;2023-07-02T01:54:48;19.00;99.90
26599;DHT22;14240;51.064;16.612;2023-07-02T01:57:14;19.00;99.90
26599;DHT22;14240;51.064;16.612;2023-07-02T01:59:40;19.00;99.90
26599;DHT22;14240;51.064;16.612;2023-07-02T02:02:05;19.00;99.90
26599;DHT22;14240;51.064;16.612;2023-07-02T02:04:31;18.90;99.90
26599;DHT22;14240;51.064;16.612;2023-07-02T02:06:57;18.90;99.90
26599;DHT22;14240;51.064;16.612;2023-07-02T02:09:22;18.90;99.90
26599;DHT22;14240;51.064;16.612;2023-07-02T02:11:49;18.90;99.90
26599;DHT22;14240;51.064;16.612;2023-07-02T02:14:16;18.90;99.90
26599;DHT22;14240;51.064;16.612;2023-07-02T02:16:43;19.00;99.90
26599;DHT22;14240;51.064;16.612;2023-07-02T02:19:11;19.00;99.90
26599;DHT22;14240;51.064;16.612;2023-07-02T02:21:37;19.00;99.90
26599;DHT22;14240;51.064;16.612;2023-07-02T02:24:03;19.00;99.90
26599;DHT22;14240;51.064;16.612;2023-07-02T02:26:29;19.00;99.90
26599;DHT22;14240;51.064;16.612;2023-07-02T02:28:55;19.00;99.90
26599;DHT22;14240;51.064;16.612;2023-07-02T02:31:20;18.90;99.90
26599;DHT22;14240;51.064;16.612;2023-07-02T02:33:46;19.00;99.90
26599;DHT22;14240;51.064;16.612;2023-07-02T02:36:12;18.90;99.90
26599;DHT22;14240;51.064;16.612;2023-07-02T02:38:37;19.00;99.90
26599;DHT22;14240;51.064;16.612;2023-07-02T02:41:03;18.90;99.90
26599;DHT22;14240;51.064;16.612;2023-07-02T02:43:29;19.00;99.90
26599;DHT22;14240;51.064;16.612;2023-07-02T02:45:55;18.90;99.90
26599;DHT22;14240;51.064;16.612;2023-07-02T02:48:21;18.90;99.90
26599;DHT22;14240;51.064;16.612;2023-07-02T02:50:48;18.90;99.90
26599;DHT22;14240;51.064;16.612;2023-07-02T02:53:14;18.90;99.90
26599;DHT22;14240;51.064;16.612;2023-07-02T02:55:39;18.90;99.90
26599;DHT22;14240;51.064;16.612;2023-07-02T02:58:05;18.90;99.90
26599;DHT22;14240;51.064;16.612;2023-07-02T03:00:31;18.90;99.90
26599;DHT22;14240;51.064;16.612;2023-07-02T03:02:57;18.90;99.90
26599;DHT22;14240;51.064;16.612;2023-07-02T03:05:23;18.90;99.90
26599;DHT22;14240;51.064;16.612;2023-07-02T03:07:50;18.90;99.90
26599;DHT22;14240;51.064;16.612;2023-07-02T03:10:16;18.90;99.90
26599;DHT22;14240;51.064;16.612;2023-07-02T03:12:42;18.90;99.90
26599;DHT22;14240;51.064;16.612;2023-07-02T03:15:08;18.90;99.90
26599;DHT22;14240;51.064;16.612;2023-07-02T03:17:34;18.90;99.90
26599;DHT22;14240;51.064;16.612;2023-07-02T03:20:00;18.90;99.90
26599;DHT22;14240;51.064;16.612;2023-07-02T03:22:26;18.90;99.90
26599;DHT22;14240;51.064;16.612;2023-07-02T03:24:52;18.90;99.90
26599;DHT22;14240;51.064;16.612;2023-07-02T03:27:17;18.90;99.90
26599;DHT22;14240;51.064;16.612;2023-07-02T03:29:43;18.90;99.90
26599;DHT22;14240;51.064;16.612;2023-07-02T03:32:09;18.90;99.90
26599;DHT22;14240;51.064;16.612;2023-07-02T03:34:34;18.90;99.90
26599;DHT22;14240;51.064;16.612;2023-07-02T03:37:00;18.90;99.90
26599;DHT22;14240;51.064;16.612;2023-07-02T03:39:26;18.90;99.90
26599;DHT22;14240;51.064;16.612;2023-07-02T03:41:51;18.90;99.90
26599;DHT22;14240;51.064;16.612;2023-07-02T03:44:17;18.90;99.90
26599;DHT22;14240;51.064;16.612;2023-07-02T03:46:43;18.90;99.90
26599;DHT22;14240;51.064;16.612;2023-07-02T03:49:08;18.90;99.90
26599;DHT22;14240;51.064;16.612;2023-07-02T03:51:34;18.90;99.90
26599;DHT22;14240;51.064;16.612;2023-07-02T03:54:00;18.90;99.90
26599;DHT22;14240;51.064;16.612;2023-07-02T03:56:25;18.90;99.90
26599;DHT22;14240;51.064;16.612;2023-07-02T03:58:55;18.90;99.90
26599;DHT22;14240;51.064;16.612;2023-07-02T04:01:21;18.90;99.90
26599;DHT22;14240;51.064;16.612;2023-07-02T04:03:50;18.90;99.90
26599;DHT22;14240;51.064;16.612;2023-07-02T04:06:17;18.90;99.90
26599;DHT22;14240;51.064;16.612;2023-07-02T04:08:43;18.90;99.90
26599;DHT22;14240;51.064;16.612;2023-07-02T04:11:10;18.90;99.90
26599;DHT22;14240;51.064;16.612;2023-07-02T04:13:36;18.90;99.90
26599;DHT22;14240;51.064;16.612;2023-07-02T04:16:02;18.90;99.90
26599;DHT22;14240;51.064;16.612;2023-07-02T04:18:28;19.00;99.90
26599;DHT22;14240;51.064;16.612;2023-07-02T04:20:55;19.00;99.90
26599;DHT22;14240;51.064;16.612;2023-07-02T04:23:21;19.00;99.90
26599;DHT22;14240;51.064;16.612;2023-07-02T04:25:46;19.00;99.90
26599;DHT22;14240;51.064;16.612;2023-07-02T04:28:12;19.00;99.90
26599;DHT22;14240;51.064;16.612;2023-07-02T04:30:38;19.00;99.90
26599;DHT22;14240;51.064;16.612;2023-07-02T04:33:04;19.10;99.90
26599;DHT22;14240;51.064;16.612;2023-07-02T04:35:31;19.10;99.90
26599;DHT22;14240;51.064;16.612;2023-07-02T04:37:57;19.10;99.90
26599;DHT22;14240;51.064;16.612;2023-07-02T04:40:23;19.10;99.90
26599;DHT22;14240;51.064;16.612;2023-07-02T04:42:48;19.20;99.90
26599;DHT22;14240;51.064;16.612;2023-07-02T04:45:15;19.20;99.90
26599;DHT22;14240;51.064;16.612;2023-07-02T04:47:45;19.20;99.90
26599;DHT22;14240;51.064;16.612;2023-07-02T04:50:17;19.20;99.90
26599;DHT22;14240;51.064;16.612;2023-07-02T04:52:42;19.20;99.90
26599;DHT22;14240;51.064;16.612;2023-07-02T04:55:08;19.30;99.90
26599;DHT22;14240;51.064;16.612;2023-07-02T04:57:34;19.30;99.90
26599;DHT22;14240;51.064;16.612;2023-07-02T05:00:00;19.20;99.90
26599;DHT22;14240;51.064;16.612;2023-07-02T05:02:25;19.20;99.90
26599;DHT22;14240;51.064;16.612;2023-07-02T05:04:51;19.20;99.90
26599;DHT22;14240;51.064;16.612;2023-07-02T05:07:17;19.20;99.90
26599;DHT22;14240;51.064;16.612;2023-07-02T05:09:42;19.30;99.90
26599;DHT22;14240;51.064;16.612;2023-07-02T05:12:09;19.30;99.90
26599;DHT22;14240;51.064;16.612;2023-07-02T05:14:34;19.30;99.90
26599;DHT22;14240;51.064;16.612;2023-07-02T05:17:00;19.30;99.90
26599;DHT22;14240;51.064;16.612;2023-07-02T05:19:26;19.40;99.90
26599;DHT22;14240;51.064;16.612;2023-07-02T05:21:51;19.40;99.90
26599;DHT22;14240;51.064;16.612;2023-07-02T05:24:17;19.40;99.90
26599;DHT22;14240;51.064;16.612;2023-07-02T05:26:43;19.40;99.90
26599;DHT22;14240;51.064;16.612;2023-07-02T05:29:10;19.40;99.90
26599;DHT22;14240;51.064;16.612;2023-07-02T05:31:36;19.40;99.90
26599;DHT22;14240;51.064;16.612;2023-07-02T05:34:02;19.50;99.90
26599;DHT22;14240;51.064;16.612;2023-07-02T05:36:27;19.50;99.90
26599;DHT22;14240;51.064;16.612;2023-07-02T05:38:53;19.50;99.90
26599;DHT22;14240;51.064;16.612;2023-07-02T05:41:22;19.50;99.90
26599;DHT22;14240;51.064;16.612;2023-07-02T05:43:47;19.60;99.90
26599;DHT22;14240;51.064;16.612;2023-07-02T05:46:14;19.60;99.90
26599;DHT22;14240;51.064;16.612;2023-07-02T05:48:41;19.70;99.90
26599;DHT22;14240;51.064;16.612;2023-07-02T05:51:07;19.70;99.90
26599;DHT22;14240;51.064;16.612;2023-07-02T05:53:33;19.80;99.90
26599;DHT22;14240;51.064;16.612;2023-07-02T05:55:59;19.80;99.90
26599;DHT22;14240;51.064;16.612;2023-07-02T05:58:25;19.90;99.90
26599;DHT22;14240;51.064;16.612;2023-07-02T06:00:50;19.90;99.90
26599;DHT22;14240;51.064;16.612;2023-07-02T06:03:17;19.90;99.90
26599;DHT22;14240;51.064;16.612;2023-07-02T06:05:48;20.00;99.90
26599;DHT22;14240;51.064;16.612;2023-07-02T06:08:18;20.00;99.90
26599;DHT22;14240;51.064;16.612;2023-07-02T06:10:46;20.00;99.90
26599;DHT22;14240;51.064;16.612;2023-07-02T06:13:12;19.90;99.90
26599;DHT22;14240;51.064;16.612;2023-07-02T06:15:38;19.80;99.90
26599;DHT22;14240;51.064;16.612;2023-07-02T06:18:04;19.70;99.90
26599;DHT22;14240;51.064;16.612;2023-07-02T06:20:29;19.60;99.90
26599;DHT22;14240;51.064;16.612;2023-07-02T06:22:55;19.60;99.90
26599;DHT22;14240;51.064;16.612;2023-07-02T06:25:21;19.40;99.90
26599;DHT22;14240;51.064;16.612;2023-07-02T06:27:47;19.40;99.90
26599;DHT22;14240;51.064;16.612;2023-07-02T06:30:12;19.30;99.90
26599;DHT22;14240;51.064;16.612;2023-07-02T06:32:38;19.30;99.90
26599;DHT22;14240;51.064;16.612;2023-07-02T06:35:04;19.30;99.90
26599;DHT22;14240;51.064;16.612;2023-07-02T06:37:32;19.30;99.90
26599;DHT22;14240;51.064;16.612;2023-07-02T06:39:57;19.20;99.90
26599;DHT22;14240;51.064;16.612;2023-07-02T06:42:24;19.30;99.90
26599;DHT22;14240;51.064;16.612;2023-07-02T06:44:50;19.30;99.90
26599;DHT22;14240;51.064;16.612;2023-07-02T06:47:16;19.40;99.90
26599;DHT22;14240;51.064;16.612;2023-07-02T06:49:41;19.50;99.90
26599;DHT22;14240;51.064;16.612;2023-07-02T06:52:07;19.60;99.90
26599;DHT22;14240;51.064;16.612;2023-07-02T06:54:33;19.70;99.90
26599;DHT22;14240;51.064;16.612;2023-07-02T06:56:59;19.70;99.90
26599;DHT22;14240;51.064;16.612;2023-07-02T06:59:24;19.80;99.90
26599;DHT22;14240;51.064;16.612;2023-07-02T07:01:50;19.90;99.90
26599;DHT22;14240;51.064;16.612;2023-07-02T07:04:16;20.00;99.90
26599;DHT22;14240;51.064;16.612;2023-07-02T07:06:42;20.00;99.90
26599;DHT22;14240;51.064;16.612;2023-07-02T07:09:08;20.10;99.90
26599;DHT22;14240;51.064;16.612;2023-07-02T07:11:34;20.20;99.90
26599;DHT22;14240;51.064;16.612;2023-07-02T07:14:00;20.30;99.90
26599;DHT22;14240;51.064;16.612;2023-07-02T07:16:26;20.40;99.90
26599;DHT22;14240;51.064;16.612;2023-07-02T07:18:52;20.40;99.90
26599;DHT22;14240;51.064;16.612;2023-07-02T07:21:17;20.50;99.90
26599;DHT22;14240;51.064;16.612;2023-07-02T07:23:43;20.60;99.90
26599;DHT22;14240;51.064;16.612;2023-07-02T07:26:09;20.60;99.90
26599;DHT22;14240;51.064;16.612;2023-07-02T07:28:35;20.60;99.90
26599;DHT22;14240;51.064;16.612;2023-07-02T07:31:01;20.60;99.90
26599;DHT22;14240;51.064;16.612;2023-07-02T07:33:26;20.60;99.90
26599;DHT22;14240;51.064;16.612;2023-07-02T07:35:52;20.50;99.90
26599;DHT22;14240;51.064;16.612;2023-07-02T07:38:18;20.40;99.90
26599;DHT22;14240;51.064;16.612;2023-07-02T07:40:44;20.30;99.90
26599;DHT22;14240;51.064;16.612;2023-07-02T07:43:10;20.20;99.90
26599;DHT22;14240;51.064;16.612;2023-07-02T07:45:35;20.10;99.90
26599;DHT22;14240;51.064;16.612;2023-07-02T07:48:01;20.00;99.90
26599;DHT22;14240;51.064;16.612;2023-07-02T07:50:28;20.00;99.90
26599;DHT22;14240;51.064;16.612;2023-07-02T07:52:53;19.90;99.90
26599;DHT22;14240;51.064;16.612;2023-07-02T07:55:19;19.90;99.90
26599;DHT22;14240;51.064;16.612;2023-07-02T07:57:45;19.90;99.90
26599;DHT22;14240;51.064;16.612;2023-07-02T08:00:11;19.80;99.90
26599;DHT22;14240;51.064;16.612;2023-07-02T08:02:37;19.80;99.90
26599;DHT22;14240;51.064;16.612;2023-07-02T08:05:03;19.80;99.90
26599;DHT22;14240;51.064;16.612;2023-07-02T08:07:31;19.80;99.90
26599;DHT22;14240;51.064;16.612;2023-07-02T08:09:58;19.70;99.90
26599;DHT22;14240;51.064;16.612;2023-07-02T08:12:24;19.70;99.90
26599;DHT22;14240;51.064;16.612;2023-07-02T08:14:52;19.60;99.90
26599;DHT22;14240;51.064;16.612;2023-07-02T08:17:17;19.60;99.90
26599;DHT22;14240;51.064;16.612;2023-07-02T08:19:43;19.50;99.90
26599;DHT22;14240;51.064;16.612;2023-07-02T08:22:09;19.40;99.90
26599;DHT22;14240;51.064;16.612;2023-07-02T08:24:35;19.30;99.90
26599;DHT22;14240;51.064;16.612;2023-07-02T08:27:01;19.30;99.90
26599;DHT22;14240;51.064;16.612;2023-07-02T08:29:29;19.20;99.90
26599;DHT22;14240;51.064;16.612;2023-07-02T08:31:54;19.20;99.90
26599;DHT22;14240;51.064;16.612;2023-07-02T08:34:20;19.20;99.90
26599;DHT22;14240;51.064;16.612;2023-07-02T08:36:46;19.20;99.90
26599;DHT22;14240;51.064;16.612;2023-07-02T08:39:11;19.10;99.90
26599;DHT22;14240;51.064;16.612;2023-07-02T08:41:47;19.10;99.90
26599;DHT22;14240;51.064;16.612;2023-07-02T08:44:16;19.10;99.90
26599;DHT22;14240;51.064;16.612;2023-07-02T08:46:44;19.10;99.90
26599;DHT22;14240;51.064;16.612;2023-07-02T08:49:10;19.10;99.90
26599;DHT22;14240;51.064;16.612;2023-07-02T08:51:36;19.10;99.90
26599;DHT22;14240;51.064;16.612;2023-07-02T08:54:02;19.10;99.90
26599;DHT22;14240;51.064;16.612;2023-07-02T08:56:29;19.00;99.90
26599;DHT22;14240;51.064;16.612;2023-07-02T08:58:55;19.00;99.90
26599;DHT22;14240;51.064;16.612;2023-07-02T09:01:20;19.10;99.90
26599;DHT22;14240;51.064;16.612;2023-07-02T09:03:46;19.10;99.90
26599;DHT22;14240;51.064;16.612;2023-07-02T09:06:12;19.10;99.90
26599;DHT22;14240;51.064;16.612;2023-07-02T09:08:39;19.20;99.90
26599;DHT22;14240;51.064;16.612;2023-07-02T09:11:14;19.20;99.90
26599;DHT22;14240;51.064;16.612;2023-07-02T09:13:50;19.20;99.90
26599;DHT22;14240;51.064;16.612;2023-07-02T09:16:35;19.30;99.90
26599;DHT22;14240;51.064;16.612;2023-07-02T09:19:07;19.40;99.90
26599;DHT22;14240;51.064;16.612;2023-07-02T09:21:41;19.40;99.90
26599;DHT22;14240;51.064;16.612;2023-07-02T09:24:19;19.50;99.90
26599;DHT22;14240;51.064;16.612;2023-07-02T09:26:49;19.50;99.90
26599;DHT22;14240;51.064;16.612;2023-07-02T09:31:54;19.50;99.90
26599;DHT22;14240;51.064;16.612;2023-07-02T09:36:55;19.70;99.90
26599;DHT22;14240;51.064;16.612;2023-07-02T09:39:26;19.70;99.90
26599;DHT22;14240;51.064;16.612;2023-07-02T09:41:53;19.70;99.90
26599;DHT22;14240;51.064;16.612;2023-07-02T09:44:19;19.80;99.90
26599;DHT22;14240;51.064;16.612;2023-07-02T09:46:58;19.90;99.90
26599;DHT22;14240;51.064;16.612;2023-07-02T09:49:24;19.90;99.90
26599;DHT22;14240;51.064;16.612;2023-07-02T09:51:51;19.90;99.90
26599;DHT22;14240;51.064;16.612;2023-07-02T09:54:17;19.90;99.90
26599;DHT22;14240;51.064;16.612;2023-07-02T09:56:46;19.90;99.90
26599;DHT22;14240;51.064;16.612;2023-07-02T09:59:13;19.90;99.90
26599;DHT22;14240;51.064;16.612;2023-07-02T10:01:39;20.40;99.90
26599;DHT22;14240;51.064;16.612;2023-07-02T10:04:15;20.00;99.90
26599;DHT22;14240;51.064;16.612;2023-07-02T10:06:48;20.10;99.90
26599;DHT22;14240;51.064;16.612;2023-07-02T10:09:14;20.10;99.90
26599;DHT22;14240;51.064;16.612;2023-07-02T10:11:40;20.20;99.90
26599;DHT22;14240;51.064;16.612;2023-07-02T10:14:06;20.30;99.90
26599;DHT22;14240;51.064;16.612;2023-07-02T10:16:32;20.40;99.90
26599;DHT22;14240;51.064;16.612;2023-07-02T10:19:12;20.40;99.90
26599;DHT22;14240;51.064;16.612;2023-07-02T10:21:38;20.50;99.90
26599;DHT22;14240;51.064;16.612;2023-07-02T10:24:15;20.60;99.90
26599;DHT22;14240;51.064;16.612;2023-07-02T10:27:03;20.60;99.90
26599;DHT22;14240;51.064;16.612;2023-07-02T10:29:29;20.80;99.90
26599;DHT22;14240;51.064;16.612;2023-07-02T10:31:56;20.90;99.90
26599;DHT22;14240;51.064;16.612;2023-07-02T10:34:32;21.10;99.90
26599;DHT22;14240;51.064;16.612;2023-07-02T10:37:00;21.40;99.90
26599;DHT22;14240;51.064;16.612;2023-07-02T10:39:27;21.50;99.90
26599;DHT22;14240;51.064;16.612;2023-07-02T10:42:04;21.70;99.90
26599;DHT22;14240;51.064;16.612;2023-07-02T10:44:29;21.80;99.90
26599;DHT22;14240;51.064;16.612;2023-07-02T10:46:57;22.00;99.90
26599;DHT22;14240;51.064;16.612;2023-07-02T10:49:30;22.20;99.90
26599;DHT22;14240;51.064;16.612;2023-07-02T10:52:00;22.30;99.90
26599;DHT22;14240;51.064;16.612;2023-07-02T10:54:37;22.40;99.90
26599;DHT22;14240;51.064;16.612;2023-07-02T10:57:03;22.50;99.90
26599;DHT22;14240;51.064;16.612;2023-07-02T10:59:29;22.60;99.90
26599;DHT22;14240;51.064;16.612;2023-07-02T11:01:55;22.80;99.90
26599;DHT22;14240;51.064;16.612;2023-07-02T11:04:21;22.90;99.90
26599;DHT22;14240;51.064;16.612;2023-07-02T11:06:47;23.00;99.90
26599;DHT22;14240;51.064;16.612;2023-07-02T11:09:17;23.20;99.90
26599;DHT22;14240;51.064;16.612;2023-07-02T11:11:59;23.30;99.90
26599;DHT22;14240;51.064;16.612;2023-07-02T11:14:30;23.40;99.90
26599;DHT22;14240;51.064;16.612;2023-07-02T11:16:56;23.50;99.90
26599;DHT22;14240;51.064;16.612;2023-07-02T11:19:22;23.60;99.90
26599;DHT22;14240;51.064;16.612;2023-07-02T11:21:56;23.70;99.90
26599;DHT22;14240;51.064;16.612;2023-07-02T11:24:35;23.80;99.90
26599;DHT22;14240;51.064;16.612;2023-07-02T11:27:03;23.90;99.90
26599;DHT22;14240;51.064;16.612;2023-07-02T11:29:31;24.00;99.90
26599;DHT22;14240;51.064;16.612;2023-07-02T11:32:11;24.10;99.90
26599;DHT22;14240;51.064;16.612;2023-07-02T11:34:38;24.10;99.90
26599;DHT22;14240;51.064;16.612;2023-07-02T11:37:05;24.20;99.90
26599;DHT22;14240;51.064;16.612;2023-07-02T11:39:31;24.20;99.90
26599;DHT22;14240;51.064;16.612;2023-07-02T11:41:57;24.30;99.90
26599;DHT22;14240;51.064;16.612;2023-07-02T11:44:23;24.30;99.90
26599;DHT22;14240;51.064;16.612;2023-07-02T11:46:49;24.40;99.90
26599;DHT22;14240;51.064;16.612;2023-07-02T11:49:15;24.50;99.90
26599;DHT22;14240;51.064;16.612;2023-07-02T11:51:42;24.60;99.90
26599;DHT22;14240;51.064;16.612;2023-07-02T11:54:13;24.70;99.90
26599;DHT22;14240;51.064;16.612;2023-07-02T11:56:39;24.80;99.90
26599;DHT22;14240;51.064;16.612;2023-07-02T11:59:07;24.90;99.90
26599;DHT22;14240;51.064;16.612;2023-07-02T12:01:33;24.90;99.90
26599;DHT22;14240;51.064;16.612;2023-07-02T12:03:59;24.90;99.90
26599;DHT22;14240;51.064;16.612;2023-07-02T12:06:24;25.00;99.90
26599;DHT22;14240;51.064;16.612;2023-07-02T12:08:50;25.00;99.90
26599;DHT22;14240;51.064;16.612;2023-07-02T12:11:16;25.00;99.90
26599;DHT22;14240;51.064;16.612;2023-07-02T12:13:42;25.20;99.90
26599;DHT22;14240;51.064;16.612;2023-07-02T12:16:07;25.20;99.70
26599;DHT22;14240;51.064;16.612;2023-07-02T12:18:33;25.20;99.80
26599;DHT22;14240;51.064;16.612;2023-07-02T12:20:59;25.30;99.90
26599;DHT22;14240;51.064;16.612;2023-07-02T12:23:24;25.40;99.50
26599;DHT22;14240;51.064;16.612;2023-07-02T12:25:50;25.40;99.60
26599;DHT22;14240;51.064;16.612;2023-07-02T12:28:16;25.40;98.70
26599;DHT22;14240;51.064;16.612;2023-07-02T12:30:42;25.40;98.50
26599;DHT22;14240;51.064;16.612;2023-07-02T12:33:07;25.50;98.30
26599;DHT22;14240;51.064;16.612;2023-07-02T12:35:33;25.50;98.30
26599;DHT22;14240;51.064;16.612;2023-07-02T12:38:00;25.60;98.30
26599;DHT22;14240;51.064;16.612;2023-07-02T12:40:25;25.60;98.00
26599;DHT22;14240;51.064;16.612;2023-07-02T12:42:52;25.60;97.60
26599;DHT22;14240;51.064;16.612;2023-07-02T12:45:18;25.60;97.30
26599;DHT22;14240;51.064;16.612;2023-07-02T12:47:43;25.50;97.60
26599;DHT22;14240;51.064;16.612;2023-07-02T12:50:10;25.40;97.40
26599;DHT22;14240;51.064;16.612;2023-07-02T12:52:36;25.50;97.00
26599;DHT22;14240;51.064;16.612;2023-07-02T12:55:02;25.50;96.00
26599;DHT22;14240;51.064;16.612;2023-07-02T12:57:28;25.40;96.00
26599;DHT22;14240;51.064;16.612;2023-07-02T12:59:57;25.40;96.70
26599;DHT22;14240;51.064;16.612;2023-07-02T13:02:23;25.40;96.10
26599;DHT22;14240;51.064;16.612;2023-07-02T13:04:50;25.40;94.60
26599;DHT22;14240;51.064;16.612;2023-07-02T13:07:17;25.40;94.80
26599;DHT22;14240;51.064;16.612;2023-07-02T13:09:43;25.30;94.90
26599;DHT22;14240;51.064;16.612;2023-07-02T13:12:10;25.30;94.40
26599;DHT22;14240;51.064;16.612;2023-07-02T13:14:36;25.30;94.30
26599;DHT22;14240;51.064;16.612;2023-07-02T13:17:02;25.20;94.40
26599;DHT22;14240;51.064;16.612;2023-07-02T13:19:31;25.20;94.70
26599;DHT22;14240;51.064;16.612;2023-07-02T13:21:57;25.10;95.00
26599;DHT22;14240;51.064;16.612;2023-07-02T13:24:23;25.10;95.10
26599;DHT22;14240;51.064;16.612;2023-07-02T13:26:49;25.00;95.20
26599;DHT22;14240;51.064;16.612;2023-07-02T13:29:15;24.90;95.70
26599;DHT22;14240;51.064;16.612;2023-07-02T13:31:42;24.90;95.70
26599;DHT22;14240;51.064;16.612;2023-07-02T13:34:07;24.90;95.90
26599;DHT22;14240;51.064;16.612;2023-07-02T13:36:33;24.80;96.00
26599;DHT22;14240;51.064;16.612;2023-07-02T13:38:59;24.80;95.10
26599;DHT22;14240;51.064;16.612;2023-07-02T13:41:24;24.80;94.40
26599;DHT22;14240;51.064;16.612;2023-07-02T13:43:50;24.80;94.60
26599;DHT22;14240;51.064;16.612;2023-07-02T13:46:16;24.80;95.30
26599;DHT22;14240;51.064;16.612;2023-07-02T13:48:42;24.80;94.60
26599;DHT22;14240;51.064;16.612;2023-07-02T13:51:08;25.00;95.10
26599;DHT22;14240;51.064;16.612;2023-07-02T13:53:34;25.00;95.10
26599;DHT22;14240;51.064;16.612;2023-07-02T13:56:00;25.10;94.70
26599;DHT22;14240;51.064;16.612;2023-07-02T13:58:25;25.20;94.70
26599;DHT22;14240;51.064;16.612;2023-07-02T14:00:51;25.20;93.70
26599;DHT22;14240;51.064;16.612;2023-07-02T14:03:17;25.10;94.00
26599;DHT22;14240;51.064;16.612;2023-07-02T14:05:43;25.10;94.40
26599;DHT22;14240;51.064;16.612;2023-07-02T14:08:09;25.00;93.80
26599;DHT22;14240;51.064;16.612;2023-07-02T14:10:35;24.90;94.00
26599;DHT22;14240;51.064;16.612;2023-07-02T14:13:00;24.90;94.20
26599;DHT22;14240;51.064;16.612;2023-07-02T14:15:26;25.00;94.10
26599;DHT22;14240;51.064;16.612;2023-07-02T14:17:53;25.00;94.20
26599;DHT22;14240;51.064;16.612;2023-07-02T14:20:20;25.10;94.30
26599;DHT22;14240;51.064;16.612;2023-07-02T14:22:46;25.20;94.00
26599;DHT22;14240;51.064;16.612;2023-07-02T14:25:12;25.30;94.30
26599;DHT22;14240;51.064;16.612;2023-07-02T14:27:38;25.30;94.40
26599;DHT22;14240;51.064;16.612;2023-07-02T14:30:04;25.40;94.20
26599;DHT22;14240;51.064;16.612;2023-07-02T14:32:34;25.40;93.90
26599;DHT22;14240;51.064;16.612;2023-07-02T14:35:02;25.40;93.70
26599;DHT22;14240;51.064;16.612;2023-07-02T14:37:28;25.40;93.20
26599;DHT22;14240;51.064;16.612;2023-07-02T14:39:54;25.30;93.30
26599;DHT22;14240;51.064;16.612;2023-07-02T14:42:20;25.30;93.30
26599;DHT22;14240;51.064;16.612;2023-07-02T14:44:45;25.20;92.90
26599;DHT22;14240;51.064;16.612;2023-07-02T14:47:11;25.20;93.20
26599;DHT22;14240;51.064;16.612;2023-07-02T14:49:37;25.20;93.30
26599;DHT22;14240;51.064;16.612;2023-07-02T14:52:03;25.20;93.00
26599;DHT22;14240;51.064;16.612;2023-07-02T14:54:30;25.20;92.80
26599;DHT22;14240;51.064;16.612;2023-07-02T14:56:55;25.20;92.70
26599;DHT22;14240;51.064;16.612;2023-07-02T14:59:21;25.20;92.80
26599;DHT22;14240;51.064;16.612;2023-07-02T15:01:47;25.10;93.00
26599;DHT22;14240;51.064;16.612;2023-07-02T15:04:12;25.20;92.60
26599;DHT22;14240;51.064;16.612;2023-07-02T15:06:38;25.20;92.60
26599;DHT22;14240;51.064;16.612;2023-07-02T15:09:04;25.20;92.70
26599;DHT22;14240;51.064;16.612;2023-07-02T15:11:30;25.10;92.70
26599;DHT22;14240;51.064;16.612;2023-07-02T15:13:55;25.00;93.00
26599;DHT22;14240;51.064;16.612;2023-07-02T15:16:23;25.00;92.90
26599;DHT22;14240;51.064;16.612;2023-07-02T15:18:49;25.00;93.00